sensor_id;sensor_type;location;lat;lon;timestamp;P1;durP1;ratioP1;P2;durP2;ratioP2
6374;SDS011;35400;45.472;-122.822;2022-09-09T00:06:33;1.83;;;0.52;;
6374;SDS011;35400;45.472;-122.822;2022-09-09T00:09:22;2.20;;;0.82;;
6374;SDS011;35400;45.472;-122.822;2022-09-09T00:12:02;3.38;;;0.80;;
6374;SDS011;35400;45.472;-122.822;2022-09-09T00:20:12;1.80;;;0.60;;
6374;SDS011;35400;45.472;-122.822;2022-09-09T00:25:37;4.18;;;0.80;;
6374;SDS011;35400;45.472;-122.822;2022-09-09T00:28:20;2.88;;;0.88;;
6374;SDS011;35400;45.472;-122.822;2022-09-09T00:30:50;3.17;;;0.50;;
6374;SDS011;35400;45.472;-122.822;2022-09-09T00:33:19;2.05;;;0.60;;
6374;SDS011;35400;45.472;-122.822;2022-09-09T00:35:49;2.83;;;0.70;;
6374;SDS011;35400;45.472;-122.822;2022-09-09T00:38:24;3.75;;;0.70;;
6374;SDS011;35400;45.472;-122.822;2022-09-09T00:43:35;0.77;;;0.57;;
6374;SDS011;35400;45.472;-122.822;2022-09-09T00:46:25;2.55;;;0.80;;
6374;SDS011;35400;45.472;-122.822;2022-09-09T00:54:28;2.70;;;1.00;;
6374;SDS011;35400;45.472;-122.822;2022-09-09T00:57:33;2.33;;;0.80;;
6374;SDS011;35400;45.472;-122.822;2022-09-09T01:17:04;3.38;;;1.00;;
6374;SDS011;35400;45.472;-122.822;2022-09-09T01:19:47;2.70;;;0.93;;
6374;SDS011;35400;45.472;-122.822;2022-09-09T01:25:22;2.55;;;0.95;;
6374;SDS011;35400;45.472;-122.822;2022-09-09T01:28:21;1.90;;;0.85;;
6374;SDS011;35400;45.472;-122.822;2022-09-09T01:30:56;1.38;;;1.00;;
6374;SDS011;35400;45.472;-122.822;2022-09-09T01:33:28;1.90;;;0.80;;
6374;SDS011;35400;45.472;-122.822;2022-09-09T01:38:48;2.78;;;1.10;;
6374;SDS011;35400;45.472;-122.822;2022-09-09T01:41:15;2.35;;;1.02;;
6374;SDS011;35400;45.472;-122.822;2022-09-09T01:43:48;3.00;;;1.02;;
6374;SDS011;35400;45.472;-122.822;2022-09-09T01:46:17;3.13;;;0.88;;
6374;SDS011;35400;45.472;-122.822;2022-09-09T01:48:47;2.40;;;1.15;;
6374;SDS011;35400;45.472;-122.822;2022-09-09T01:51:16;2.72;;;0.90;;
6374;SDS011;35400;45.472;-122.822;2022-09-09T01:53:43;1.40;;;0.88;;
6374;SDS011;35400;45.472;-122.822;2022-09-09T01:58:59;2.78;;;1.00;;
6374;SDS011;35400;45.472;-122.822;2022-09-09T02:04:43;1.33;;;0.80;;
6374;SDS011;35400;45.472;-122.822;2022-09-09T02:07:28;3.15;;;0.95;;
6374;SDS011;35400;45.472;-122.822;2022-09-09T02:10:47;3.28;;;1.17;;
6374;SDS011;35400;45.472;-122.822;2022-09-09T02:13:39;1.85;;;0.70;;
6374;SDS011;35400;45.472;-122.822;2022-09-09T02:16:17;2.20;;;1.00;;
6374;SDS011;35400;45.472;-122.822;2022-09-09T02:21:51;4.28;;;0.90;;
6374;SDS011;35400;45.472;-122.822;2022-09-09T02:24:23;2.60;;;0.60;;
6374;SDS011;35400;45.472;-122.822;2022-09-09T02:27:05;3.10;;;0.90;;
6374;SDS011;35400;45.472;-122.822;2022-09-09T02:29:36;1.58;;;0.80;;
6374;SDS011;35400;45.472;-122.822;2022-09-09T02:32:14;2.83;;;0.95;;
6374;SDS011;35400;45.472;-122.822;2022-09-09T02:34:48;2.28;;;1.00;;
6374;SDS011;35400;45.472;-122.822;2022-09-09T02:37:23;3.08;;;0.90;;
6374;SDS011;35400;45.472;-122.822;2022-09-09T02:39:55;3.47;;;1.10;;
6374;SDS011;35400;45.472;-122.822;2022-09-09T02:42:24;4.15;;;0.95;;
6374;SDS011;35400;45.472;-122.822;2022-09-09T02:44:53;2.65;;;0.90;;
6374;SDS011;35400;45.472;-122.822;2022-09-09T02:58:10;2.25;;;0.90;;
6374;SDS011;35400;45.472;-122.822;2022-09-09T03:00:46;4.18;;;1.23;;
6374;SDS011;35400;45.472;-122.822;2022-09-09T03:03:17;0.93;;;0.88;;
6374;SDS011;35400;45.472;-122.822;2022-09-09T03:05:47;2.58;;;0.70;;
6374;SDS011;35400;45.472;-122.822;2022-09-09T03:08:15;4.32;;;1.17;;
6374;SDS011;35400;45.472;-122.822;2022-09-09T03:10:43;1.83;;;1.05;;
6374;SDS011;35400;45.472;-122.822;2022-09-09T03:13:13;3.15;;;1.00;;
6374;SDS011;35400;45.472;-122.822;2022-09-09T03:15:41;2.95;;;1.08;;
6374;SDS011;35400;45.472;-122.822;2022-09-09T03:18:13;4.63;;;1.13;;
6374;SDS011;35400;45.472;-122.822;2022-09-09T03:20:40;1.60;;;1.30;;
6374;SDS011;35400;45.472;-122.822;2022-09-09T03:23:08;4.38;;;1.00;;
6374;SDS011;35400;45.472;-122.822;2022-09-09T03:25:35;3.30;;;1.10;;
6374;SDS011;35400;45.472;-122.822;2022-09-09T03:28:01;2.80;;;1.07;;
6374;SDS011;35400;45.472;-122.822;2022-09-09T03:30:28;3.40;;;1.27;;
6374;SDS011;35400;45.472;-122.822;2022-09-09T03:32:56;3.55;;;1.20;;
6374;SDS011;35400;45.472;-122.822;2022-09-09T03:35:28;2.08;;;0.90;;
6374;SDS011;35400;45.472;-122.822;2022-09-09T03:37:55;2.35;;;0.90;;
6374;SDS011;35400;45.472;-122.822;2022-09-09T03:40:22;2.33;;;1.10;;
6374;SDS011;35400;45.472;-122.822;2022-09-09T03:42:49;2.43;;;0.90;;
6374;SDS011;35400;45.472;-122.822;2022-09-09T03:45:16;2.13;;;0.83;;
6374;SDS011;35400;45.472;-122.822;2022-09-09T03:47:44;3.15;;;1.10;;
6374;SDS011;35400;45.472;-122.822;2022-09-09T03:50:12;2.75;;;0.90;;
6374;SDS011;35400;45.472;-122.822;2022-09-09T03:52:44;2.75;;;0.77;;
6374;SDS011;35400;45.472;-122.822;2022-09-09T03:55:19;1.63;;;0.82;;
6374;SDS011;35400;45.472;-122.822;2022-09-09T03:57:46;1.17;;;0.83;;
6374;SDS011;35400;45.472;-122.822;2022-09-09T04:00:14;1.93;;;0.60;;
6374;SDS011;35400;45.472;-122.822;2022-09-09T04:02:48;2.00;;;0.80;;
6374;SDS011;35400;45.472;-122.822;2022-09-09T04:05:16;3.83;;;1.10;;
6374;SDS011;35400;45.472;-122.822;2022-09-09T04:07:46;1.10;;;0.80;;
6374;SDS011;35400;45.472;-122.822;2022-09-09T04:10:13;2.90;;;0.80;;
6374;SDS011;35400;45.472;-122.822;2022-09-09T04:12:42;2.37;;;0.80;;
6374;SDS011;35400;45.472;-122.822;2022-09-09T04:15:09;2.35;;;0.80;;
6374;SDS011;35400;45.472;-122.822;2022-09-09T04:17:38;1.63;;;0.80;;
6374;SDS011;35400;45.472;-122.822;2022-09-09T04:20:05;1.53;;;0.93;;
6374;SDS011;35400;45.472;-122.822;2022-09-09T04:22:37;1.87;;;0.90;;
6374;SDS011;35400;45.472;-122.822;2022-09-09T04:25:05;1.43;;;0.90;;
6374;SDS011;35400;45.472;-122.822;2022-09-09T04:27:33;4.00;;;0.87;;
6374;SDS011;35400;45.472;-122.822;2022-09-09T04:30:00;2.10;;;0.80;;
6374;SDS011;35400;45.472;-122.822;2022-09-09T04:32:32;3.83;;;0.60;;
6374;SDS011;35400;45.472;-122.822;2022-09-09T04:34:59;3.80;;;0.70;;
6374;SDS011;35400;45.472;-122.822;2022-09-09T04:37:26;2.43;;;0.77;;
6374;SDS011;35400;45.472;-122.822;2022-09-09T04:39:54;2.10;;;0.80;;
6374;SDS011;35400;45.472;-122.822;2022-09-09T04:42:21;1.60;;;0.83;;
6374;SDS011;35400;45.472;-122.822;2022-09-09T04:44:50;2.20;;;0.60;;
6374;SDS011;35400;45.472;-122.822;2022-09-09T04:47:22;1.83;;;0.70;;
6374;SDS011;35400;45.472;-122.822;2022-09-09T04:49:49;1.57;;;0.57;;
6374;SDS011;35400;45.472;-122.822;2022-09-09T04:52:17;1.93;;;0.63;;
6374;SDS011;35400;45.472;-122.822;2022-09-09T04:54:44;3.33;;;0.70;;
6374;SDS011;35400;45.472;-122.822;2022-09-09T04:57:11;1.90;;;0.50;;
6374;SDS011;35400;45.472;-122.822;2022-09-09T04:59:38;1.73;;;0.50;;
6374;SDS011;35400;45.472;-122.822;2022-09-09T05:02:05;1.80;;;0.60;;
6374;SDS011;35400;45.472;-122.822;2022-09-09T05:04:33;1.60;;;0.80;;
6374;SDS011;35400;45.472;-122.822;2022-09-09T05:07:02;0.73;;;0.60;;
6374;SDS011;35400;45.472;-122.822;2022-09-09T05:09:29;1.83;;;0.60;;
6374;SDS011;35400;45.472;-122.822;2022-09-09T05:11:56;1.33;;;0.73;;
6374;SDS011;35400;45.472;-122.822;2022-09-09T05:14:35;1.37;;;0.50;;
6374;SDS011;35400;45.472;-122.822;2022-09-09T05:17:04;1.37;;;0.50;;
6374;SDS011;35400;45.472;-122.822;2022-09-09T05:19:32;2.97;;;0.63;;
6374;SDS011;35400;45.472;-122.822;2022-09-09T05:21:59;1.50;;;0.70;;
6374;SDS011;35400;45.472;-122.822;2022-09-09T05:24:34;0.97;;;0.60;;
6374;SDS011;35400;45.472;-122.822;2022-09-09T05:27:03;3.50;;;0.60;;
6374;SDS011;35400;45.472;-122.822;2022-09-09T05:29:32;1.63;;;0.80;;
6374;SDS011;35400;45.472;-122.822;2022-09-09T05:31:59;1.27;;;0.70;;
6374;SDS011;35400;45.472;-122.822;2022-09-09T05:34:26;2.40;;;0.60;;
6374;SDS011;35400;45.472;-122.822;2022-09-09T05:36:53;1.13;;;0.63;;
6374;SDS011;35400;45.472;-122.822;2022-09-09T05:39:21;1.10;;;0.70;;
6374;SDS011;35400;45.472;-122.822;2022-09-09T05:41:48;1.90;;;0.60;;
6374;SDS011;35400;45.472;-122.822;2022-09-09T05:44:15;0.77;;;0.60;;
6374;SDS011;35400;45.472;-122.822;2022-09-09T05:46:42;0.93;;;0.53;;
6374;SDS011;35400;45.472;-122.822;2022-09-09T05:49:12;1.50;;;0.70;;
6374;SDS011;35400;45.472;-122.822;2022-09-09T05:51:41;2.13;;;0.60;;
6374;SDS011;35400;45.472;-122.822;2022-09-09T05:54:11;2.17;;;0.80;;
6374;SDS011;35400;45.472;-122.822;2022-09-09T05:56:44;1.53;;;0.80;;
6374;SDS011;35400;45.472;-122.822;2022-09-09T05:59:12;0.60;;;0.57;;
6374;SDS011;35400;45.472;-122.822;2022-09-09T06:01:39;2.30;;;0.80;;
6374;SDS011;35400;45.472;-122.822;2022-09-09T06:04:08;0.93;;;0.60;;
6374;SDS011;35400;45.472;-122.822;2022-09-09T06:06:37;2.13;;;0.70;;
6374;SDS011;35400;45.472;-122.822;2022-09-09T06:09:10;1.07;;;0.70;;
6374;SDS011;35400;45.472;-122.822;2022-09-09T06:11:41;2.70;;;0.80;;
6374;SDS011;35400;45.472;-122.822;2022-09-09T06:14:09;1.80;;;0.70;;
6374;SDS011;35400;45.472;-122.822;2022-09-09T06:16:37;3.57;;;0.70;;
6374;SDS011;35400;45.472;-122.822;2022-09-09T06:19:10;1.43;;;0.93;;
6374;SDS011;35400;45.472;-122.822;2022-09-09T06:21:38;1.53;;;0.80;;
6374;SDS011;35400;45.472;-122.822;2022-09-09T06:24:07;1.63;;;0.70;;
6374;SDS011;35400;45.472;-122.822;2022-09-09T06:26:36;2.60;;;0.80;;
6374;SDS011;35400;45.472;-122.822;2022-09-09T06:29:10;2.17;;;0.90;;
6374;SDS011;35400;45.472;-122.822;2022-09-09T06:31:37;2.90;;;0.77;;
6374;SDS011;35400;45.472;-122.822;2022-09-09T06:34:10;3.53;;;0.90;;
6374;SDS011;35400;45.472;-122.822;2022-09-09T06:36:40;3.20;;;0.80;;
6374;SDS011;35400;45.472;-122.822;2022-09-09T06:39:07;2.30;;;0.90;;
6374;SDS011;35400;45.472;-122.822;2022-09-09T06:41:37;1.10;;;0.83;;
6374;SDS011;35400;45.472;-122.822;2022-09-09T06:44:07;2.00;;;1.00;;
6374;SDS011;35400;45.472;-122.822;2022-09-09T06:46:39;1.10;;;0.80;;
6374;SDS011;35400;45.472;-122.822;2022-09-09T06:49:08;4.67;;;1.10;;
6374;SDS011;35400;45.472;-122.822;2022-09-09T06:51:36;2.50;;;0.93;;
6374;SDS011;35400;45.472;-122.822;2022-09-09T06:54:11;2.60;;;0.80;;
6374;SDS011;35400;45.472;-122.822;2022-09-09T06:56:42;2.17;;;0.70;;
6374;SDS011;35400;45.472;-122.822;2022-09-09T06:59:20;1.87;;;0.70;;
6374;SDS011;35400;45.472;-122.822;2022-09-09T07:01:48;1.00;;;0.70;;
6374;SDS011;35400;45.472;-122.822;2022-09-09T07:04:17;2.47;;;0.80;;
6374;SDS011;35400;45.472;-122.822;2022-09-09T07:06:44;1.67;;;0.80;;
6374;SDS011;35400;45.472;-122.822;2022-09-09T07:09:16;1.83;;;0.80;;
6374;SDS011;35400;45.472;-122.822;2022-09-09T07:11:46;1.93;;;0.70;;
6374;SDS011;35400;45.472;-122.822;2022-09-09T07:14:23;1.50;;;0.90;;
6374;SDS011;35400;45.472;-122.822;2022-09-09T07:17:02;1.23;;;0.90;;
6374;SDS011;35400;45.472;-122.822;2022-09-09T07:19:34;1.83;;;1.00;;
6374;SDS011;35400;45.472;-122.822;2022-09-09T07:22:04;4.60;;;0.83;;
6374;SDS011;35400;45.472;-122.822;2022-09-09T07:24:33;2.00;;;0.77;;
6374;SDS011;35400;45.472;-122.822;2022-09-09T07:27:00;2.50;;;0.80;;
6374;SDS011;35400;45.472;-122.822;2022-09-09T07:29:28;1.87;;;0.90;;
6374;SDS011;35400;45.472;-122.822;2022-09-09T07:31:56;2.80;;;0.90;;
6374;SDS011;35400;45.472;-122.822;2022-09-09T07:34:28;1.60;;;0.80;;
6374;SDS011;35400;45.472;-122.822;2022-09-09T07:36:55;2.87;;;1.30;;
6374;SDS011;35400;45.472;-122.822;2022-09-09T07:39:23;3.73;;;1.20;;
6374;SDS011;35400;45.472;-122.822;2022-09-09T07:41:52;2.67;;;1.00;;
6374;SDS011;35400;45.472;-122.822;2022-09-09T07:44:23;3.97;;;1.30;;
6374;SDS011;35400;45.472;-122.822;2022-09-09T07:47:01;2.53;;;1.10;;
6374;SDS011;35400;45.472;-122.822;2022-09-09T07:49:34;2.67;;;1.13;;
6374;SDS011;35400;45.472;-122.822;2022-09-09T07:52:03;4.00;;;1.30;;
6374;SDS011;35400;45.472;-122.822;2022-09-09T07:54:30;3.37;;;1.20;;
6374;SDS011;35400;45.472;-122.822;2022-09-09T07:56:59;2.43;;;1.20;;
6374;SDS011;35400;45.472;-122.822;2022-09-09T07:59:28;4.67;;;1.30;;
6374;SDS011;35400;45.472;-122.822;2022-09-09T08:01:56;3.50;;;1.30;;
6374;SDS011;35400;45.472;-122.822;2022-09-09T08:04:27;4.43;;;1.23;;
6374;SDS011;35400;45.472;-122.822;2022-09-09T08:06:56;3.27;;;1.10;;
6374;SDS011;35400;45.472;-122.822;2022-09-09T08:09:26;3.10;;;0.97;;
6374;SDS011;35400;45.472;-122.822;2022-09-09T08:12:04;3.73;;;1.17;;
6374;SDS011;35400;45.472;-122.822;2022-09-09T08:14:33;4.00;;;1.10;;
6374;SDS011;35400;45.472;-122.822;2022-09-09T08:17:01;3.73;;;1.10;;
6374;SDS011;35400;45.472;-122.822;2022-09-09T08:19:30;3.03;;;1.40;;
6374;SDS011;35400;45.472;-122.822;2022-09-09T08:22:00;4.37;;;1.20;;
6374;SDS011;35400;45.472;-122.822;2022-09-09T08:24:27;1.87;;;0.90;;
6374;SDS011;35400;45.472;-122.822;2022-09-09T08:26:54;1.40;;;0.90;;
6374;SDS011;35400;45.472;-122.822;2022-09-09T08:29:23;2.00;;;0.80;;
6374;SDS011;35400;45.472;-122.822;2022-09-09T08:31:52;2.27;;;1.00;;
6374;SDS011;35400;45.472;-122.822;2022-09-09T08:34:23;2.20;;;1.07;;
6374;SDS011;35400;45.472;-122.822;2022-09-09T08:36:53;2.40;;;0.90;;
6374;SDS011;35400;45.472;-122.822;2022-09-09T08:39:26;4.90;;;1.40;;
6374;SDS011;35400;45.472;-122.822;2022-09-09T08:50:13;4.37;;;1.27;;
6374;SDS011;35400;45.472;-122.822;2022-09-09T08:55:39;1.47;;;0.87;;
6374;SDS011;35400;45.472;-122.822;2022-09-09T08:58:28;4.83;;;1.83;;
6374;SDS011;35400;45.472;-122.822;2022-09-09T09:11:37;4.37;;;1.57;;
6374;SDS011;35400;45.472;-122.822;2022-09-09T09:14:23;3.83;;;1.43;;
6374;SDS011;35400;45.472;-122.822;2022-09-09T09:16:59;3.43;;;1.30;;
6374;SDS011;35400;45.472;-122.822;2022-09-09T09:19:38;3.27;;;1.30;;
6374;SDS011;35400;45.472;-122.822;2022-09-09T09:24:55;3.67;;;1.37;;
6374;SDS011;35400;45.472;-122.822;2022-09-09T09:30:23;3.53;;;1.20;;
6374;SDS011;35400;45.472;-122.822;2022-09-09T09:33:14;1.90;;;1.00;;
6374;SDS011;35400;45.472;-122.822;2022-09-09T09:35:53;4.87;;;1.33;;
6374;SDS011;35400;45.472;-122.822;2022-09-09T09:38:21;3.33;;;1.37;;
6374;SDS011;35400;45.472;-122.822;2022-09-09T09:40:55;3.50;;;1.30;;
6374;SDS011;35400;45.472;-122.822;2022-09-09T09:43:28;2.57;;;1.10;;
6374;SDS011;35400;45.472;-122.822;2022-09-09T09:45:59;3.70;;;1.50;;
6374;SDS011;35400;45.472;-122.822;2022-09-09T09:48:29;2.07;;;1.33;;
6374;SDS011;35400;45.472;-122.822;2022-09-09T09:50:58;3.03;;;1.37;;
6374;SDS011;35400;45.472;-122.822;2022-09-09T09:53:31;1.87;;;1.33;;
6374;SDS011;35400;45.472;-122.822;2022-09-09T09:56:04;4.07;;;1.40;;
6374;SDS011;35400;45.472;-122.822;2022-09-09T09:58:33;1.73;;;1.13;;
6374;SDS011;35400;45.472;-122.822;2022-09-09T10:04:21;2.30;;;1.27;;
6374;SDS011;35400;45.472;-122.822;2022-09-09T10:06:54;3.60;;;1.40;;
6374;SDS011;35400;45.472;-122.822;2022-09-09T10:12:01;4.97;;;1.50;;
6374;SDS011;35400;45.472;-122.822;2022-09-09T10:18:15;2.80;;;1.20;;
6374;SDS011;35400;45.472;-122.822;2022-09-09T10:21:00;3.80;;;1.53;;
6374;SDS011;35400;45.472;-122.822;2022-09-09T10:29:24;1.30;;;1.10;;
6374;SDS011;35400;45.472;-122.822;2022-09-09T10:32:16;2.87;;;1.37;;
6374;SDS011;35400;45.472;-122.822;2022-09-09T10:40:34;2.60;;;1.40;;
6374;SDS011;35400;45.472;-122.822;2022-09-09T10:46:16;3.30;;;1.40;;
6374;SDS011;35400;45.472;-122.822;2022-09-09T10:49:14;1.50;;;1.20;;
6374;SDS011;35400;45.472;-122.822;2022-09-09T10:51:58;3.00;;;1.33;;
6374;SDS011;35400;45.472;-122.822;2022-09-09T10:57:17;3.17;;;1.43;;
6374;SDS011;35400;45.472;-122.822;2022-09-09T10:59:48;3.87;;;1.47;;
6374;SDS011;35400;45.472;-122.822;2022-09-09T11:02:21;3.40;;;1.70;;
6374;SDS011;35400;45.472;-122.822;2022-09-09T11:13:13;3.73;;;1.90;;
6374;SDS011;35400;45.472;-122.822;2022-09-09T11:16:17;5.00;;;1.83;;
6374;SDS011;35400;45.472;-122.822;2022-09-09T11:18:46;2.77;;;1.27;;
6374;SDS011;35400;45.472;-122.822;2022-09-09T11:21:18;2.80;;;1.50;;
6374;SDS011;35400;45.472;-122.822;2022-09-09T11:23:57;3.07;;;1.60;;
6374;SDS011;35400;45.472;-122.822;2022-09-09T11:26:37;1.83;;;1.40;;
6374;SDS011;35400;45.472;-122.822;2022-09-09T11:29:26;3.87;;;1.63;;
6374;SDS011;35400;45.472;-122.822;2022-09-09T11:32:47;4.67;;;1.77;;
6374;SDS011;35400;45.472;-122.822;2022-09-09T11:38:29;4.43;;;1.40;;
6374;SDS011;35400;45.472;-122.822;2022-09-09T11:41:06;3.47;;;2.00;;
6374;SDS011;35400;45.472;-122.822;2022-09-09T11:43:39;3.03;;;1.53;;
6374;SDS011;35400;45.472;-122.822;2022-09-09T11:46:08;4.53;;;1.83;;
6374;SDS011;35400;45.472;-122.822;2022-09-09T11:48:38;6.47;;;1.90;;
6374;SDS011;35400;45.472;-122.822;2022-09-09T11:53:49;3.43;;;1.63;;
6374;SDS011;35400;45.472;-122.822;2022-09-09T11:57:02;4.10;;;1.60;;
6374;SDS011;35400;45.472;-122.822;2022-09-09T11:59:52;2.43;;;1.47;;
6374;SDS011;35400;45.472;-122.822;2022-09-09T12:02:14;2.23;;;1.73;;
6374;SDS011;35400;45.472;-122.822;2022-09-09T12:04:49;2.27;;;1.73;;
6374;SDS011;35400;45.472;-122.822;2022-09-09T12:07:33;4.50;;;1.80;;
6374;SDS011;35400;45.472;-122.822;2022-09-09T12:12:46;3.50;;;1.60;;
6374;SDS011;35400;45.472;-122.822;2022-09-09T12:15:21;5.47;;;2.17;;
6374;SDS011;35400;45.472;-122.822;2022-09-09T12:17:55;3.30;;;1.83;;
6374;SDS011;35400;45.472;-122.822;2022-09-09T12:20:29;3.17;;;1.50;;
6374;SDS011;35400;45.472;-122.822;2022-09-09T12:34:10;3.47;;;1.63;;
6374;SDS011;35400;45.472;-122.822;2022-09-09T12:36:41;3.13;;;1.90;;
6374;SDS011;35400;45.472;-122.822;2022-09-09T12:39:27;2.10;;;1.70;;
6374;SDS011;35400;45.472;-122.822;2022-09-09T12:41:59;3.07;;;1.77;;
6374;SDS011;35400;45.472;-122.822;2022-09-09T12:44:26;2.57;;;1.63;;
6374;SDS011;35400;45.472;-122.822;2022-09-09T12:46:56;3.77;;;1.80;;
6374;SDS011;35400;45.472;-122.822;2022-09-09T12:49:31;2.57;;;1.80;;
6374;SDS011;35400;45.472;-122.822;2022-09-09T12:52:25;2.83;;;1.53;;
6374;SDS011;35400;45.472;-122.822;2022-09-09T12:54:58;3.43;;;2.03;;
6374;SDS011;35400;45.472;-122.822;2022-09-09T12:57:29;2.10;;;1.73;;
6374;SDS011;35400;45.472;-122.822;2022-09-09T13:00:07;5.53;;;1.90;;
6374;SDS011;35400;45.472;-122.822;2022-09-09T13:02:49;3.70;;;2.10;;
6374;SDS011;35400;45.472;-122.822;2022-09-09T13:05:25;3.23;;;1.93;;
6374;SDS011;35400;45.472;-122.822;2022-09-09T13:08:07;5.03;;;2.53;;
6374;SDS011;35400;45.472;-122.822;2022-09-09T13:10:46;2.10;;;1.90;;
6374;SDS011;35400;45.472;-122.822;2022-09-09T13:13:34;3.27;;;1.93;;
6374;SDS011;35400;45.472;-122.822;2022-09-09T13:16:07;4.17;;;2.03;;
6374;SDS011;35400;45.472;-122.822;2022-09-09T13:19:15;4.67;;;2.27;;
6374;SDS011;35400;45.472;-122.822;2022-09-09T13:21:43;2.13;;;1.90;;
6374;SDS011;35400;45.472;-122.822;2022-09-09T13:27:03;4.97;;;2.33;;
6374;SDS011;35400;45.472;-122.822;2022-09-09T13:29:51;3.30;;;2.20;;
6374;SDS011;35400;45.472;-122.822;2022-09-09T13:32:22;4.83;;;2.40;;
6374;SDS011;35400;45.472;-122.822;2022-09-09T13:34:58;4.13;;;2.50;;
6374;SDS011;35400;45.472;-122.822;2022-09-09T13:37:33;3.20;;;2.00;;
6374;SDS011;35400;45.472;-122.822;2022-09-09T13:40:12;4.37;;;2.40;;
6374;SDS011;35400;45.472;-122.822;2022-09-09T13:42:44;3.77;;;2.27;;
6374;SDS011;35400;45.472;-122.822;2022-09-09T13:45:20;3.73;;;2.40;;
6374;SDS011;35400;45.472;-122.822;2022-09-09T13:47:55;6.17;;;2.30;;
6374;SDS011;35400;45.472;-122.822;2022-09-09T13:50:23;4.37;;;2.13;;
6374;SDS011;35400;45.472;-122.822;2022-09-09T13:52:55;5.63;;;2.33;;
6374;SDS011;35400;45.472;-122.822;2022-09-09T13:55:26;3.83;;;2.40;;
6374;SDS011;35400;45.472;-122.822;2022-09-09T14:00:29;4.63;;;2.40;;
6374;SDS011;35400;45.472;-122.822;2022-09-09T14:02:57;2.27;;;2.07;;
6374;SDS011;35400;45.472;-122.822;2022-09-09T14:05:26;3.23;;;2.50;;
6374;SDS011;35400;45.472;-122.822;2022-09-09T14:07:54;6.17;;;2.30;;
6374;SDS011;35400;45.472;-122.822;2022-09-09T14:10:21;4.27;;;2.23;;
6374;SDS011;35400;45.472;-122.822;2022-09-09T14:12:48;3.93;;;2.67;;
6374;SDS011;35400;45.472;-122.822;2022-09-09T14:15:14;4.27;;;2.60;;
6374;SDS011;35400;45.472;-122.822;2022-09-09T14:17:42;5.47;;;2.77;;
6374;SDS011;35400;45.472;-122.822;2022-09-09T14:20:09;4.13;;;2.40;;
6374;SDS011;35400;45.472;-122.822;2022-09-09T14:22:37;5.13;;;3.00;;
6374;SDS011;35400;45.472;-122.822;2022-09-09T14:25:07;4.20;;;2.60;;
6374;SDS011;35400;45.472;-122.822;2022-09-09T14:27:34;3.80;;;2.63;;
6374;SDS011;35400;45.472;-122.822;2022-09-09T14:30:01;5.40;;;2.70;;
6374;SDS011;35400;45.472;-122.822;2022-09-09T14:32:28;3.90;;;3.00;;
6374;SDS011;35400;45.472;-122.822;2022-09-09T14:34:55;4.47;;;2.70;;
6374;SDS011;35400;45.472;-122.822;2022-09-09T14:37:21;6.33;;;2.70;;
6374;SDS011;35400;45.472;-122.822;2022-09-09T14:39:49;4.63;;;3.00;;
6374;SDS011;35400;45.472;-122.822;2022-09-09T14:42:16;3.57;;;2.80;;
6374;SDS011;35400;45.472;-122.822;2022-09-09T14:44:43;2.63;;;2.43;;
6374;SDS011;35400;45.472;-122.822;2022-09-09T14:47:10;4.50;;;3.23;;
6374;SDS011;35400;45.472;-122.822;2022-09-09T14:49:36;5.47;;;3.10;;
6374;SDS011;35400;45.472;-122.822;2022-09-09T14:52:04;4.53;;;2.80;;
6374;SDS011;35400;45.472;-122.822;2022-09-09T14:54:31;4.30;;;3.40;;
6374;SDS011;35400;45.472;-122.822;2022-09-09T14:56:58;5.83;;;3.10;;
6374;SDS011;35400;45.472;-122.822;2022-09-09T14:59:25;4.13;;;2.87;;
6374;SDS011;35400;45.472;-122.822;2022-09-09T15:01:52;5.23;;;3.03;;
6374;SDS011;35400;45.472;-122.822;2022-09-09T15:04:19;3.60;;;2.93;;
6374;SDS011;35400;45.472;-122.822;2022-09-09T15:06:46;5.10;;;3.00;;
6374;SDS011;35400;45.472;-122.822;2022-09-09T15:09:14;5.33;;;3.00;;
6374;SDS011;35400;45.472;-122.822;2022-09-09T15:11:41;3.27;;;2.97;;
6374;SDS011;35400;45.472;-122.822;2022-09-09T15:14:09;3.67;;;3.00;;
6374;SDS011;35400;45.472;-122.822;2022-09-09T15:16:38;4.40;;;3.20;;
6374;SDS011;35400;45.472;-122.822;2022-09-09T15:19:05;5.13;;;3.30;;
6374;SDS011;35400;45.472;-122.822;2022-09-09T15:21:34;7.57;;;4.00;;
6374;SDS011;35400;45.472;-122.822;2022-09-09T15:24:02;8.00;;;3.20;;
6374;SDS011;35400;45.472;-122.822;2022-09-09T15:26:30;6.57;;;3.83;;
6374;SDS011;35400;45.472;-122.822;2022-09-09T15:28:57;4.53;;;3.57;;
6374;SDS011;35400;45.472;-122.822;2022-09-09T15:31:25;3.67;;;3.33;;
6374;SDS011;35400;45.472;-122.822;2022-09-09T15:33:58;6.30;;;3.60;;
6374;SDS011;35400;45.472;-122.822;2022-09-09T15:36:27;5.10;;;3.73;;
6374;SDS011;35400;45.472;-122.822;2022-09-09T15:38:55;4.23;;;3.80;;
6374;SDS011;35400;45.472;-122.822;2022-09-09T15:41:23;6.87;;;3.60;;
6374;SDS011;35400;45.472;-122.822;2022-09-09T15:43:51;3.90;;;3.37;;
6374;SDS011;35400;45.472;-122.822;2022-09-09T15:46:23;5.77;;;3.53;;
6374;SDS011;35400;45.472;-122.822;2022-09-09T15:49:15;5.13;;;3.93;;
6374;SDS011;35400;45.472;-122.822;2022-09-09T15:51:44;6.33;;;4.40;;
6374;SDS011;35400;45.472;-122.822;2022-09-09T15:54:14;5.63;;;4.07;;
6374;SDS011;35400;45.472;-122.822;2022-09-09T15:56:46;6.90;;;3.87;;
6374;SDS011;35400;45.472;-122.822;2022-09-09T15:59:16;4.80;;;4.30;;
6374;SDS011;35400;45.472;-122.822;2022-09-09T16:01:42;4.90;;;3.70;;
6374;SDS011;35400;45.472;-122.822;2022-09-09T16:04:09;4.70;;;3.73;;
6374;SDS011;35400;45.472;-122.822;2022-09-09T16:06:37;5.93;;;3.97;;
6374;SDS011;35400;45.472;-122.822;2022-09-09T16:09:05;4.83;;;4.13;;
6374;SDS011;35400;45.472;-122.822;2022-09-09T16:11:34;5.73;;;4.37;;
6374;SDS011;35400;45.472;-122.822;2022-09-09T16:14:02;5.13;;;4.30;;
6374;SDS011;35400;45.472;-122.822;2022-09-09T16:16:30;4.57;;;4.17;;
6374;SDS011;35400;45.472;-122.822;2022-09-09T16:19:03;6.07;;;4.77;;
6374;SDS011;35400;45.472;-122.822;2022-09-09T16:21:36;6.83;;;4.80;;
6374;SDS011;35400;45.472;-122.822;2022-09-09T16:24:13;7.20;;;5.70;;
6374;SDS011;35400;45.472;-122.822;2022-09-09T16:26:43;5.83;;;5.30;;
6374;SDS011;35400;45.472;-122.822;2022-09-09T16:29:12;6.32;;;5.72;;
6374;SDS011;35400;45.472;-122.822;2022-09-09T16:31:40;9.57;;;6.55;;
6374;SDS011;35400;45.472;-122.822;2022-09-09T16:34:07;8.27;;;6.40;;
6374;SDS011;35400;45.472;-122.822;2022-09-09T16:36:35;6.40;;;5.80;;
6374;SDS011;35400;45.472;-122.822;2022-09-09T16:39:05;8.77;;;6.18;;
6374;SDS011;35400;45.472;-122.822;2022-09-09T16:41:35;8.55;;;6.82;;
6374;SDS011;35400;45.472;-122.822;2022-09-09T16:44:03;7.70;;;6.95;;
6374;SDS011;35400;45.472;-122.822;2022-09-09T16:46:37;7.65;;;6.75;;
6374;SDS011;35400;45.472;-122.822;2022-09-09T16:49:06;11.40;;;6.53;;
6374;SDS011;35400;45.472;-122.822;2022-09-09T16:51:38;7.35;;;6.13;;
6374;SDS011;35400;45.472;-122.822;2022-09-09T16:54:07;7.88;;;7.07;;
6374;SDS011;35400;45.472;-122.822;2022-09-09T16:56:36;8.02;;;7.30;;
6374;SDS011;35400;45.472;-122.822;2022-09-09T16:59:08;10.35;;;7.68;;
6374;SDS011;35400;45.472;-122.822;2022-09-09T17:01:37;7.85;;;6.97;;
6374;SDS011;35400;45.472;-122.822;2022-09-09T17:04:09;8.90;;;8.10;;
6374;SDS011;35400;45.472;-122.822;2022-09-09T17:06:39;8.90;;;7.53;;
6374;SDS011;35400;45.472;-122.822;2022-09-09T17:09:07;11.10;;;8.60;;
6374;SDS011;35400;45.472;-122.822;2022-09-09T17:11:38;9.13;;;7.53;;
6374;SDS011;35400;45.472;-122.822;2022-09-09T17:14:06;10.73;;;8.45;;
6374;SDS011;35400;45.472;-122.822;2022-09-09T17:16:35;9.02;;;8.05;;
6374;SDS011;35400;45.472;-122.822;2022-09-09T17:19:05;11.15;;;8.27;;
6374;SDS011;35400;45.472;-122.822;2022-09-09T17:21:33;8.77;;;7.97;;